Time;durP1;ratioP1;P1;durP2;ratioP2;P2;SDS_P1;SDS_P2;PMS_P1;PMS_P2;Temp;Humidity;BMP_temperature;BMP_pressure;BME280_temperature;BME280_humidity;BME280_pressure;Samples;Min_cycle;Max_cycle;Signal;HPM_P1;HPM_P2
2021/12/16 00:03:28;;;;;;;0.00;0.00;;;8.00;99.90;;;;;;4999369;28;20131;-67
2021/12/16 00:10:53;;;;;;;0.00;0.00;;;8.00;99.90;;;;;;4999367;28;20551;-69
2021/12/16 00:34:44;;;;;;;0.00;0.00;;;8.50;99.90;;;;;;5018534;28;20052;-67
2021/12/16 00:37:10;;;;;;;0.00;0.00;;;8.20;99.90;;;;;;5018829;28;20052;-67
2021/12/16 00:39:37;;;;;;;0.00;0.00;;;8.20;99.90;;;;;;5018114;28;20049;-68
2021/12/16 00:42:11;;;;;;;0.00;0.00;;;8.20;99.90;;;;;;5017304;28;20169;-68
2021/12/16 00:49:42;;;;;;;0.00;0.00;;;8.10;99.90;;;;;;5018801;28;20084;-68
2021/12/16 00:55:09;;;;;;;0.00;0.00;;;8.20;99.90;;;;;;5017160;28;20523;-67
2021/12/16 00:57:37;;;;;;;0.10;0.10;;;8.50;99.90;;;;;;5017220;28;20084;-68
2021/12/16 01:00:05;;;;;;;0.00;0.00;;;8.10;99.90;;;;;;5016801;28;20831;-68
2021/12/16 01:35:30;;;;;;;0.00;0.00;;;8.80;99.90;;;;;;5017003;28;20582;-67
2021/12/16 01:51:23;;;;;;;0.00;0.00;;;8.10;99.90;;;;;;5016476;28;20080;-67
2021/12/16 01:54:32;;;;;;;0.00;0.00;;;8.10;99.90;;;;;;5015226;28;20050;-66
2021/12/16 01:57:04;;;;;;;0.00;0.00;;;8.10;99.90;;;;;;5015623;28;20141;-66
2021/12/16 01:59:35;;;;;;;0.00;0.00;;;8.10;99.90;;;;;;5016422;28;20408;-67
2021/12/16 02:02:13;;;;;;;0.00;0.00;;;8.10;99.90;;;;;;5017332;28;20061;-67
2021/12/16 02:05:03;;;;;;;0.00;0.00;;;8.10;99.90;;;;;;5015600;28;20093;-66
2021/12/16 02:10:18;;;;;;;0.00;0.00;;;8.10;99.90;;;;;;4946304;28;20061;-66
2021/12/16 02:35:11;;;;;;;0.00;0.00;;;8.10;99.90;;;;;;4961791;28;20450;-67
2021/12/16 02:36:59;;;;;;;0.00;0.00;;;8.10;99.90;;;;;;4957574;28;21364;-68
2021/12/16 02:39:31;;;;;;;0.00;0.00;;;8.30;99.90;;;;;;4961458;28;20062;-67
2021/12/16 02:42:03;;;;;;;0.00;0.00;;;8.10;99.90;;;;;;4962073;28;20129;-67
2021/12/16 02:44:39;;;;;;;0.00;0.00;;;8.10;99.90;;;;;;4960465;28;20055;-66
2021/12/16 02:49:55;;;;;;;0.00;0.00;;;8.10;99.90;;;;;;4962538;28;20093;-68
2021/12/16 02:52:23;;;;;;;0.00;0.00;;;8.10;99.90;;;;;;4961937;28;20090;-67
2021/12/16 02:54:49;;;;;;;0.00;0.00;;;8.10;99.90;;;;;;4961159;28;20042;-68
2021/12/16 02:57:16;;;;;;;0.00;0.00;;;9.10;99.90;;;;;;4959711;28;20507;-68
2021/12/16 02:59:43;;;;;;;0.00;0.00;;;8.30;99.90;;;;;;4960321;28;20493;-67
2021/12/16 03:02:14;;;;;;;0.00;0.00;;;8.00;99.90;;;;;;4961940;28;20401;-68
2021/12/16 03:04:42;;;;;;;0.20;0.20;;;7.90;99.90;;;;;;4960261;28;20125;-67
2021/12/16 03:07:11;;;;;;;0.00;0.00;;;7.70;99.90;;;;;;4976606;28;20070;-67
2021/12/16 03:15:01;;;;;;;0.00;0.00;;;8.00;99.90;;;;;;4959486;28;20050;-67
2021/12/16 03:17:37;;;;;;;0.00;0.00;;;9.10;99.90;;;;;;4965389;28;20093;-68
2021/12/16 03:20:21;;;;;;;0.00;0.00;;;8.40;99.90;;;;;;4966454;28;20413;-67
2021/12/16 03:26:39;;;;;;;0.15;0.15;;;8.00;99.90;;;;;;4960767;28;20141;-68
2021/12/16 03:36:36;;;;;;;0.00;0.00;;;8.50;99.90;;;;;;4959539;28;20099;-68
2021/12/16 03:39:08;;;;;;;0.00;0.00;;;7.90;99.90;;;;;;4960343;28;20545;-66
2021/12/16 03:41:34;;;;;;;0.03;0.03;;;8.00;99.90;;;;;;4960342;28;20130;-67
2021/12/16 03:44:06;;;;;;;0.00;0.00;;;7.90;99.90;;;;;;4959459;28;20053;-67
2021/12/16 03:46:37;;;;;;;0.00;0.00;;;7.90;99.90;;;;;;4960377;28;20097;-67
2021/12/16 03:49:17;;;;;;;0.00;0.00;;;7.90;99.90;;;;;;4959835;28;20047;-67
2021/12/16 03:52:09;;;;;;;0.00;0.00;;;7.90;99.90;;;;;;4961345;28;20391;-66
2021/12/16 03:54:51;;;;;;;0.00;0.00;;;7.90;99.90;;;;;;4958354;28;20113;-67
2021/12/16 03:57:21;;;;;;;0.00;0.00;;;7.80;99.90;;;;;;4960562;28;20086;-66
2021/12/16 03:59:47;;;;;;;0.00;0.00;;;7.80;99.90;;;;;;4958762;28;20062;-66
2021/12/16 04:02:20;;;;;;;0.00;0.00;;;8.00;99.90;;;;;;4961198;28;20039;-67
2021/12/16 04:04:47;;;;;;;0.00;0.00;;;7.80;99.90;;;;;;4960731;28;20058;-66
2021/12/16 04:07:13;;;;;;;0.00;0.00;;;7.80;99.90;;;;;;4960203;28;20051;-67
2021/12/16 04:09:39;;;;;;;0.00;0.00;;;7.80;99.90;;;;;;4960572;28;20110;-67
2021/12/16 04:12:11;;;;;;;0.00;0.00;;;8.00;99.90;;;;;;4960924;28;20050;-67
2021/12/16 04:14:40;;;;;;;0.00;0.00;;;7.80;99.90;;;;;;4959305;28;20404;-66
2021/12/16 04:17:07;;;;;;;0.00;0.00;;;7.80;99.90;;;;;;4962593;28;20051;-67
2021/12/16 04:19:34;;;;;;;0.00;0.00;;;7.80;99.90;;;;;;4967971;28;20053;-66
2021/12/16 04:22:02;;;;;;;0.00;0.00;;;8.50;99.90;;;;;;4960508;28;20047;-66
2021/12/16 04:24:28;;;;;;;0.00;0.00;;;7.70;99.90;;;;;;4960326;28;20461;-67
2021/12/16 04:26:57;;;;;;;0.00;0.00;;;7.80;99.90;;;;;;4959146;28;20066;-66
2021/12/16 04:29:23;;;;;;;0.00;0.00;;;7.70;99.90;;;;;;4959786;28;20161;-67
2021/12/16 04:31:50;;;;;;;0.00;0.00;;;7.90;99.90;;;;;;4957956;28;20050;-67
2021/12/16 04:34:16;;;;;;;0.00;0.00;;;8.30;99.90;;;;;;4959171;28;20484;-66
2021/12/16 04:36:42;;;;;;;0.00;0.00;;;7.80;99.90;;;;;;4942718;28;20055;-67
2021/12/16 04:39:12;;;;;;;0.00;0.00;;;7.70;99.90;;;;;;4960286;28;20061;-67
2021/12/16 04:41:40;;;;;;;0.00;0.00;;;8.80;99.90;;;;;;4960172;28;20093;-67
2021/12/16 04:44:11;;;;;;;0.00;0.00;;;7.80;99.90;;;;;;4958225;28;20050;-67
2021/12/16 04:46:37;;;;;;;0.00;0.00;;;7.70;99.90;;;;;;4958845;28;20105;-66
2021/12/16 04:49:04;;;;;;;0.00;0.00;;;7.70;99.90;;;;;;4959153;28;20050;-66
2021/12/16 04:51:34;;;;;;;0.00;0.00;;;7.90;99.90;;;;;;4960179;28;20035;-67
2021/12/16 04:54:00;;;;;;;0.00;0.00;;;7.70;99.90;;;;;;4960229;28;20082;-67
2021/12/16 04:56:26;;;;;;;0.00;0.00;;;7.90;99.90;;;;;;4957148;28;20125;-67
2021/12/16 04:58:54;;;;;;;0.00;0.00;;;7.60;99.90;;;;;;4958074;28;20952;-67
2021/12/16 05:01:21;;;;;;;0.00;0.00;;;7.60;99.90;;;;;;4958297;28;20078;-66
2021/12/16 05:03:47;;;;;;;0.00;0.00;;;7.70;99.90;;;;;;4960208;28;20051;-67
2021/12/16 05:06:13;;;;;;;0.00;0.00;;;7.60;99.90;;;;;;4958540;28;20446;-67
2021/12/16 05:08:39;;;;;;;0.00;0.00;;;7.60;99.90;;;;;;4959902;28;20058;-67
2021/12/16 05:11:09;;;;;;;0.00;0.00;;;7.80;99.90;;;;;;4958227;28;20039;-66
2021/12/16 05:13:36;;;;;;;0.00;0.00;;;7.60;99.90;;;;;;4959361;28;20055;-67
2021/12/16 05:16:04;;;;;;;0.00;0.00;;;7.60;99.90;;;;;;4973895;28;20135;-67
2021/12/16 05:18:34;;;;;;;0.00;0.00;;;7.60;99.90;;;;;;4971469;28;20504;-67
2021/12/16 05:21:16;;;;;;;0.00;0.00;;;7.50;99.90;;;;;;4959941;28;20129;-67
2021/12/16 05:26:26;;;;;;;0.00;0.00;;;7.50;99.90;;;;;;4958241;28;20051;-69
2021/12/16 05:28:55;;;;;;;0.00;0.00;;;7.80;99.90;;;;;;4957665;28;20053;-67
2021/12/16 05:31:23;;;;;;;0.00;0.00;;;7.90;99.90;;;;;;4958267;28;20046;-69
2021/12/16 05:33:51;;;;;;;0.00;0.00;;;7.60;99.90;;;;;;4959508;28;20042;-69
2021/12/16 05:36:17;;;;;;;0.00;0.00;;;7.50;99.90;;;;;;4958214;28;20089;-67
2021/12/16 05:38:43;;;;;;;0.00;0.00;;;7.80;99.90;;;;;;4958045;28;20066;-67
2021/12/16 05:41:11;;;;;;;0.00;0.00;;;7.50;99.90;;;;;;4957899;28;20047;-66
2021/12/16 05:43:38;;;;;;;0.00;0.00;;;7.50;99.90;;;;;;4957498;28;20046;-66
2021/12/16 05:46:05;;;;;;;0.00;0.00;;;7.50;99.90;;;;;;4958265;28;20485;-67
2021/12/16 05:48:35;;;;;;;0.00;0.00;;;7.50;99.90;;;;;;4958301;28;20482;-66
2021/12/16 05:51:07;;;;;;;0.00;0.00;;;8.10;99.90;;;;;;4942403;28;20556;-67
2021/12/16 05:53:33;;;;;;;0.00;0.00;;;7.40;99.90;;;;;;4959127;28;20186;-67
2021/12/16 05:56:00;;;;;;;0.00;0.00;;;7.40;99.90;;;;;;4957805;28;20043;-67
2021/12/16 05:58:26;;;;;;;0.00;0.00;;;7.40;99.90;;;;;;4957123;28;20129;-67
2021/12/16 06:00:58;;;;;;;0.00;0.00;;;7.40;99.90;;;;;;4973655;28;20747;-67
2021/12/16 06:03:24;;;;;;;0.00;0.00;;;7.40;99.90;;;;;;4958016;28;20538;-67
2021/12/16 06:05:51;;;;;;;0.00;0.00;;;7.40;99.90;;;;;;4958909;28;20078;-67
2021/12/16 06:08:16;;;;;;;0.00;0.00;;;7.40;99.90;;;;;;4961285;28;20070;-67
2021/12/16 06:11:15;;;;;;;0.00;0.00;;;7.40;99.90;;;;;;4960601;28;20113;-67
2021/12/16 06:14:09;;;;;;;0.00;0.00;;;7.50;99.90;;;;;;4960438;28;20113;-67
2021/12/16 06:22:33;;;;;;;0.00;0.00;;;7.40;99.90;;;;;;4961214;28;20050;-67
2021/12/16 06:27:49;;;;;;;0.00;0.00;;;7.30;99.90;;;;;;4961606;28;20061;-67
2021/12/16 06:30:18;;;;;;;0.00;0.00;;;7.30;99.90;;;;;;4962668;28;20723;-67
2021/12/16 06:32:44;;;;;;;0.00;0.00;;;7.30;99.90;;;;;;4961486;28;20055;-67
2021/12/16 06:35:11;;;;;;;0.00;0.00;;;7.60;99.90;;;;;;4961873;28;20043;-67
2021/12/16 06:37:38;;;;;;;0.00;0.00;;;7.30;99.90;;;;;;4961475;28;20054;-67
2021/12/16 06:40:05;;;;;;;0.00;0.00;;;7.40;99.90;;;;;;4962012;28;20149;-67
2021/12/16 06:42:34;;;;;;;0.00;0.00;;;7.20;99.90;;;;;;4962183;28;20055;-67
2021/12/16 06:45:07;;;;;;;0.00;0.00;;;7.30;99.90;;;;;;4960810;28;20104;-67
2021/12/16 06:47:51;;;;;;;0.00;0.00;;;7.30;99.90;;;;;;4961328;28;20084;-67
2021/12/16 06:53:26;;;;;;;0.00;0.00;;;7.20;99.90;;;;;;4959760;28;20113;-67
2021/12/16 06:56:04;;;;;;;0.00;0.00;;;7.20;99.90;;;;;;4959654;28;20477;-67
2021/12/16 06:58:36;;;;;;;0.00;0.00;;;7.20;99.90;;;;;;4961479;28;20035;-67
2021/12/16 07:01:15;;;;;;;0.00;0.00;;;7.20;99.90;;;;;;4960819;28;20059;-67
2021/12/16 07:03:49;;;;;;;0.00;0.00;;;7.20;99.90;;;;;;4960515;28;20062;-67
2021/12/16 07:06:25;;;;;;;0.00;0.00;;;7.10;99.90;;;;;;4961661;28;20122;-67
2021/12/16 07:08:54;;;;;;;0.00;0.00;;;7.10;99.90;;;;;;4960971;28;20058;-67
2021/12/16 07:11:20;;;;;;;0.00;0.00;;;7.50;99.90;;;;;;4962072;28;20051;-68
2021/12/16 07:13:56;;;;;;;0.00;0.00;;;7.00;99.90;;;;;;4960983;28;20562;-67
2021/12/16 07:16:23;;;;;;;0.17;0.17;;;7.00;99.90;;;;;;4959736;28;20129;-67
2021/12/16 07:18:49;;;;;;;0.10;0.10;;;7.00;99.90;;;;;;4970323;28;20101;-68
2021/12/16 07:21:15;;;;;;;0.00;0.00;;;8.20;99.90;;;;;;4961416;28;20039;-68
2021/12/16 07:23:41;;;;;;;0.00;0.00;;;7.00;99.90;;;;;;4959646;28;20050;-67
2021/12/16 07:26:07;;;;;;;0.00;0.00;;;7.00;99.90;;;;;;4959833;28;20050;-67
2021/12/16 07:28:33;;;;;;;0.00;0.00;;;8.10;99.90;;;;;;4960880;28;20461;-67
2021/12/16 07:31:00;;;;;;;0.00;0.00;;;7.00;99.90;;;;;;4961813;28;20046;-68
2021/12/16 07:33:26;;;;;;;0.00;0.00;;;7.00;99.90;;;;;;4960288;28;20062;-68
2021/12/16 07:35:53;;;;;;;0.00;0.00;;;7.00;99.90;;;;;;4959713;28;20059;-67
2021/12/16 07:38:19;;;;;;;0.00;0.00;;;7.20;99.90;;;;;;4959967;28;20050;-68
2021/12/16 07:40:48;;;;;;;0.00;0.00;;;7.10;99.90;;;;;;4959683;28;20093;-67
2021/12/16 07:45:58;;;;;;;0.00;0.00;;;7.60;99.90;;;;;;4960768;28;20047;-68
2021/12/16 07:48:27;;;;;;;0.00;0.00;;;7.00;99.90;;;;;;4961299;28;20039;-68
2021/12/16 07:50:55;;;;;;;0.00;0.00;;;7.30;99.90;;;;;;4959509;28;20065;-67
2021/12/16 07:53:22;;;;;;;0.00;0.00;;;7.00;99.90;;;;;;4959422;28;20046;-67
2021/12/16 07:55:48;;;;;;;0.00;0.00;;;7.00;99.90;;;;;;4960766;28;20065;-67
2021/12/16 07:58:15;;;;;;;0.20;0.20;;;7.10;99.90;;;;;;4959041;28;20129;-67
2021/12/16 08:00:42;;;;;;;0.00;0.00;;;7.00;99.90;;;;;;4959304;28;20050;-67
2021/12/16 08:03:11;;;;;;;0.00;0.00;;;7.10;99.90;;;;;;4959640;28;20047;-65
2021/12/16 08:05:43;;;;;;;0.00;0.00;;;7.10;99.90;;;;;;4959422;28;20410;-67
2021/12/16 08:08:09;;;;;;;0.00;0.00;;;7.10;99.90;;;;;;4958845;28;20113;-69
2021/12/16 08:10:36;;;;;;;0.00;0.00;;;7.10;99.90;;;;;;4959492;28;20059;-69
2021/12/16 08:13:03;;;;;;;0.00;0.00;;;7.10;99.90;;;;;;4958941;28;20069;-69
2021/12/16 08:15:28;;;;;;;0.00;0.00;;;7.10;99.90;;;;;;4958423;28;20046;-68
2021/12/16 08:17:55;;;;;;;0.00;0.00;;;7.50;99.90;;;;;;4963544;28;20043;-69
2021/12/16 08:20:22;;;;;;;0.00;0.00;;;7.20;99.90;;;;;;4958996;28;20047;-69
2021/12/16 08:22:50;;;;;;;0.00;0.00;;;7.20;99.90;;;;;;4958828;28;20035;-69
2021/12/16 08:25:19;;;;;;;0.00;0.00;;;7.20;99.90;;;;;;4958882;28;20527;-69
2021/12/16 08:27:46;;;;;;;0.00;0.00;;;7.20;99.90;;;;;;4957699;28;20072;-70
2021/12/16 08:30:15;;;;;;;0.00;0.00;;;7.20;99.90;;;;;;4958142;28;20055;-69
2021/12/16 08:32:43;;;;;;;0.00;0.00;;;7.20;99.90;;;;;;4957611;28;20046;-69
2021/12/16 08:35:09;;;;;;;0.00;0.00;;;8.20;99.90;;;;;;4958874;28;20595;-69
2021/12/16 08:37:35;;;;;;;0.00;0.00;;;7.30;99.90;;;;;;4958775;28;20082;-69
2021/12/16 08:40:04;;;;;;;0.00;0.00;;;8.30;99.90;;;;;;4960331;28;20046;-69
2021/12/16 08:42:30;;;;;;;0.10;0.10;;;7.30;99.90;;;;;;4958191;28;20073;-68
2021/12/16 08:44:56;;;;;;;0.00;0.00;;;7.30;99.90;;;;;;4958756;28;20047;-69
2021/12/16 08:47:21;;;;;;;0.00;0.00;;;7.30;99.90;;;;;;4959971;28;20387;-69
2021/12/16 08:49:48;;;;;;;0.00;0.00;;;7.30;99.90;;;;;;4958717;28;20046;-68
2021/12/16 08:52:17;;;;;;;0.00;0.00;;;7.40;99.90;;;;;;4959051;28;20061;-69
2021/12/16 08:54:44;;;;;;;0.00;0.00;;;7.40;99.90;;;;;;4959597;28;20054;-69
2021/12/16 08:57:11;;;;;;;0.00;0.00;;;8.20;99.90;;;;;;4957553;28;20181;-69
2021/12/16 08:59:37;;;;;;;0.00;0.00;;;7.90;99.90;;;;;;4957862;28;20464;-67
2021/12/16 09:02:07;;;;;;;0.00;0.00;;;7.80;99.90;;;;;;4958371;28;20069;-67
2021/12/16 09:04:34;;;;;;;0.00;0.00;;;7.50;99.90;;;;;;4960161;28;20055;-67
2021/12/16 09:07:03;;;;;;;0.00;0.00;;;7.60;99.90;;;;;;4957872;28;20232;-67
2021/12/16 09:09:34;;;;;;;0.00;0.00;;;8.10;99.90;;;;;;4958776;28;20073;-66
2021/12/16 09:12:25;;;;;;;0.00;0.00;;;7.10;99.90;;;;;;4957890;28;20586;-65
2021/12/16 09:14:51;;;;;;;0.00;0.00;;;7.80;99.90;;;;;;4957925;28;20050;-64
2021/12/16 09:17:17;;;;;;;0.00;0.00;;;7.70;99.90;;;;;;4961425;28;20042;-66
2021/12/16 09:19:51;;;;;;;0.00;0.00;;;7.70;99.90;;;;;;4968077;28;20046;-57
2021/12/16 09:22:17;;;;;;;0.00;0.00;;;7.60;99.90;;;;;;4959732;28;20054;-58
2021/12/16 09:24:45;;;;;;;0.00;0.00;;;7.60;99.90;;;;;;4959687;28;20094;-58
2021/12/16 09:27:11;;;;;;;0.00;0.00;;;7.60;99.90;;;;;;4959296;28;20058;-58
2021/12/16 09:29:37;;;;;;;0.00;0.00;;;7.70;99.90;;;;;;4959110;28;20050;-58
2021/12/16 09:32:04;;;;;;;0.00;0.00;;;7.70;99.90;;;;;;4959739;28;20050;-57
2021/12/16 09:34:31;;;;;;;0.00;0.00;;;7.70;99.90;;;;;;4959887;28;20109;-58
2021/12/16 09:36:57;;;;;;;0.00;0.00;;;7.70;99.90;;;;;;4959569;28;20050;-58
2021/12/16 09:39:25;;;;;;;0.00;0.00;;;7.70;99.90;;;;;;4957686;28;20046;-59
2021/12/16 09:41:55;;;;;;;0.00;0.00;;;7.70;99.90;;;;;;4959448;28;20042;-67
2021/12/16 09:44:22;;;;;;;0.15;0.15;;;7.90;99.90;;;;;;4957475;28;20043;-67
2021/12/16 09:46:51;;;;;;;0.00;0.00;;;7.70;99.90;;;;;;4957008;28;20050;-67
2021/12/16 09:49:18;;;;;;;0.08;0.08;;;7.70;99.90;;;;;;4958749;28;20042;-67
2021/12/16 09:51:46;;;;;;;0.00;0.00;;;7.70;99.90;;;;;;4958036;28;20137;-67
2021/12/16 09:54:14;;;;;;;0.00;0.00;;;7.90;99.90;;;;;;4957261;28;20039;-67
2021/12/16 09:56:43;;;;;;;0.05;0.05;;;7.70;99.90;;;;;;4958863;28;20051;-68
2021/12/16 09:59:12;;;;;;;0.00;0.00;;;8.30;99.90;;;;;;4958157;28;20039;-67
2021/12/16 10:01:38;;;;;;;0.00;0.00;;;8.20;99.90;;;;;;4957944;28;20567;-67
2021/12/16 10:04:07;;;;;;;0.00;0.00;;;8.80;99.90;;;;;;4956795;28;20417;-67
2021/12/16 10:06:35;;;;;;;0.00;0.00;;;7.80;99.90;;;;;;4957457;28;20049;-68
2021/12/16 10:09:04;;;;;;;0.00;0.00;;;7.80;99.90;;;;;;4958199;28;20051;-67
2021/12/16 10:11:31;;;;;;;0.00;0.00;;;8.00;99.90;;;;;;4956821;28;20054;-65
2021/12/16 10:19:12;;;;;;;0.00;0.00;;;8.00;99.90;;;;;;4965085;28;20104;-65
2021/12/16 10:21:41;;;;;;;0.00;0.00;;;8.20;99.90;;;;;;4978500;28;20588;-65
2021/12/16 10:24:27;;;;;;;0.00;0.00;;;8.00;99.90;;;;;;4978338;28;20141;-65
2021/12/16 10:27:17;;;;;;;0.00;0.00;;;8.00;99.90;;;;;;4975703;28;20145;-65
2021/12/16 10:29:50;;;;;;;0.00;0.00;;;8.40;99.90;;;;;;4976821;28;20675;-65
2021/12/16 10:32:35;;;;;;;0.00;0.00;;;8.10;99.90;;;;;;4977348;28;20051;-65
2021/12/16 10:35:06;;;;;;;0.00;0.00;;;8.20;99.90;;;;;;4977880;28;20140;-66
2021/12/16 10:37:34;;;;;;;0.00;0.00;;;8.10;99.90;;;;;;4977758;28;20479;-65
2021/12/16 10:40:22;;;;;;;0.00;0.00;;;8.20;99.90;;;;;;4976993;28;20401;-64
2021/12/16 10:42:48;;;;;;;0.10;0.10;;;8.10;99.90;;;;;;4991260;28;20054;-67
2021/12/16 10:45:33;;;;;;;0.17;0.17;;;8.10;99.90;;;;;;4960422;28;20054;-67
2021/12/16 10:48:17;;;;;;;0.00;0.00;;;8.00;99.90;;;;;;4976823;28;20042;-65
2021/12/16 10:51:06;;;;;;;0.00;0.00;;;8.00;99.90;;;;;;4976327;28;20149;-67
2021/12/16 10:53:50;;;;;;;0.00;0.00;;;7.90;99.90;;;;;;4995082;28;20043;-67
2021/12/16 10:56:19;;;;;;;0.00;0.00;;;8.00;99.90;;;;;;4979507;28;20125;-67
2021/12/16 10:59:03;;;;;;;0.00;0.00;;;7.90;99.90;;;;;;4979920;28;20614;-67
2021/12/16 11:01:37;;;;;;;0.00;0.00;;;7.90;99.90;;;;;;4980431;28;20046;-67
2021/12/16 11:04:08;;;;;;;0.00;0.00;;;7.90;99.90;;;;;;4979724;28;20050;-67
2021/12/16 11:06:47;;;;;;;0.00;0.00;;;8.10;99.90;;;;;;4980056;28;20057;-66
2021/12/16 11:09:30;;;;;;;0.00;0.00;;;8.20;99.90;;;;;;4979910;28;20149;-67
2021/12/16 11:12:16;;;;;;;0.00;0.00;;;7.90;99.90;;;;;;4978604;28;20050;-69
2021/12/16 11:14:46;;;;;;;0.00;0.00;;;7.90;99.90;;;;;;4981172;28;20116;-68
2021/12/16 11:17:15;;;;;;;0.00;0.00;;;7.90;99.90;;;;;;4974662;28;20039;-68
2021/12/16 11:19:51;;;;;;;0.03;0.03;;;8.00;99.90;;;;;;4984180;28;20041;-65
2021/12/16 11:22:21;;;;;;;0.00;0.00;;;8.00;99.90;;;;;;4961674;28;20105;-65
2021/12/16 11:24:47;;;;;;;0.00;0.00;;;7.90;99.90;;;;;;4959568;28;20502;-65
2021/12/16 11:27:44;;;;;;;0.00;0.00;;;7.90;99.90;;;;;;4960860;28;20039;-66
2021/12/16 11:30:33;;;;;;;0.00;0.00;;;7.90;99.90;;;;;;4960685;28;20069;-66
2021/12/16 11:33:08;;;;;;;0.00;0.00;;;8.00;99.90;;;;;;4960730;28;20050;-65
2021/12/16 11:35:42;;;;;;;0.00;0.00;;;7.90;99.90;;;;;;4960301;28;20417;-68
2021/12/16 11:38:22;;;;;;;0.00;0.00;;;8.30;99.90;;;;;;4943664;28;20047;-68
2021/12/16 11:41:08;;;;;;;0.00;0.00;;;8.00;99.90;;;;;;4960734;28;20054;-63
2021/12/16 11:43:35;;;;;;;;;;;8.00;99.90;;;;;;4959899;28;20706;-68
2021/12/16 11:46:04;;;;;;;0.15;0.15;;;8.20;99.90;;;;;;4960758;28;19926;-65
2021/12/16 11:48:35;;;;;;;0.00;0.00;;;8.00;99.90;;;;;;4961668;28;20046;-67
2021/12/16 11:51:31;;;;;;;0.00;0.00;;;8.00;99.90;;;;;;4961588;28;20102;-67
2021/12/16 11:54:01;;;;;;;0.00;0.00;;;8.00;99.90;;;;;;4958946;28;20055;-67
2021/12/16 11:56:44;;;;;;;0.00;0.00;;;8.10;99.90;;;;;;4959752;28;20453;-67
2021/12/16 11:59:11;;;;;;;0.00;0.00;;;8.10;99.90;;;;;;4959332;28;20055;-57
2021/12/16 12:01:39;;;;;;;0.00;0.00;;;8.20;99.90;;;;;;4961117;28;20062;-58
2021/12/16 12:04:08;;;;;;;0.00;0.00;;;8.20;99.90;;;;;;4960473;28;20422;-57
2021/12/16 12:06:36;;;;;;;0.03;0.03;;;8.30;99.90;;;;;;4960003;28;20042;-58
2021/12/16 12:09:05;;;;;;;0.00;0.00;;;8.30;99.90;;;;;;4961372;28;20053;-58
2021/12/16 12:11:36;;;;;;;0.00;0.00;;;8.20;99.90;;;;;;4961037;28;20053;-58
2021/12/16 12:14:20;;;;;;;0.00;0.00;;;8.40;99.90;;;;;;4959098;28;20246;-60
2021/12/16 12:16:49;;;;;;;1.75;0.40;;;8.30;99.90;;;;;;4958462;28;20047;-57
2021/12/16 12:19:19;;;;;;;0.00;0.00;;;8.40;99.90;;;;;;4959290;28;20051;-57
2021/12/16 12:21:57;;;;;;;0.10;0.10;;;8.30;99.90;;;;;;4959419;28;20332;-57
2021/12/16 12:24:32;;;;;;;0.00;0.00;;;8.20;99.90;;;;;;4958919;28;20525;-58
2021/12/16 12:26:58;;;;;;;0.00;0.00;;;8.30;99.90;;;;;;4958308;28;20058;-58
2021/12/16 12:29:32;;;;;;;0.00;0.00;;;8.20;99.90;;;;;;4958956;28;20045;-59
2021/12/16 12:32:07;;;;;;;0.00;0.00;;;8.50;99.90;;;;;;4957809;28;20062;-58
2021/12/16 12:34:35;;;;;;;0.00;0.00;;;8.30;99.90;;;;;;4958354;28;20105;-58
2021/12/16 12:37:06;;;;;;;0.00;0.00;;;8.30;99.90;;;;;;4959695;28;20342;-58
2021/12/16 12:39:36;;;;;;;0.00;0.00;;;8.40;99.90;;;;;;4959332;28;20050;-58
2021/12/16 12:42:03;;;;;;;0.00;0.00;;;8.30;99.90;;;;;;4957547;28;20101;-58
2021/12/16 12:44:29;;;;;;;0.00;0.00;;;8.30;99.90;;;;;;4959651;28;20457;-58
2021/12/16 12:46:58;;;;;;;0.00;0.00;;;8.50;99.90;;;;;;4957525;28;20089;-58
2021/12/16 12:49:26;;;;;;;0.00;0.00;;;8.40;99.90;;;;;;4958521;28;20171;-58
2021/12/16 12:52:01;;;;;;;0.00;0.00;;;8.40;99.90;;;;;;4955671;28;20537;-58
2021/12/16 12:54:29;;;;;;;0.00;0.00;;;9.30;99.90;;;;;;4990963;28;20049;-58
2021/12/16 12:56:59;;;;;;;0.00;0.00;;;8.80;99.90;;;;;;4995311;28;20096;-58
2021/12/16 12:59:38;;;;;;;0.00;0.00;;;8.50;99.90;;;;;;4979846;28;20556;-58
2021/12/16 13:02:20;;;;;;;0.00;0.00;;;8.30;99.90;;;;;;4984286;28;20042;-58
2021/12/16 13:04:54;;;;;;;1.25;0.20;;;8.30;99.90;;;;;;4988239;28;20052;-60
2021/12/16 13:07:53;;;;;;;0.00;0.00;;;8.40;99.90;;;;;;4997333;28;20058;-58
2021/12/16 13:10:30;;;;;;;1.88;1.45;;;8.40;99.90;;;;;;4997018;28;20184;-58
2021/12/16 13:15:54;;;;;;;0.00;0.00;;;8.40;99.90;;;;;;4996757;28;20131;-58
2021/12/16 13:27:01;;;;;;;0.00;0.00;;;8.40;99.90;;;;;;4996382;28;20412;-66
2021/12/16 13:29:35;;;;;;;0.00;0.00;;;8.30;99.90;;;;;;4995790;28;20048;-67
2021/12/16 13:32:10;;;;;;;0.47;0.28;;;8.40;99.90;;;;;;4997078;28;20222;-67
2021/12/16 13:34:43;;;;;;;0.03;0.03;;;8.20;99.90;;;;;;4995050;28;20471;-68
2021/12/16 13:37:34;;;;;;;0.00;0.00;;;8.20;99.90;;;;;;4996877;28;20069;-66
2021/12/16 13:40:15;;;;;;;0.00;0.00;;;8.20;99.90;;;;;;4992187;28;20133;-67
2021/12/16 13:42:54;;;;;;;0.00;0.00;;;8.10;99.90;;;;;;4994859;28;20100;-66
2021/12/16 13:45:49;;;;;;;0.00;0.00;;;8.50;99.90;;;;;;4994387;28;20545;-67
2021/12/16 14:00:39;;;;;;;0.00;0.00;;;8.20;99.90;;;;;;4997306;28;20054;-66
2021/12/16 14:08:35;;;;;;;0.00;0.00;;;8.20;99.90;;;;;;4995371;28;20509;-67
2021/12/16 14:11:28;;;;;;;0.00;0.00;;;8.20;99.90;;;;;;4997186;28;20062;-66
2021/12/16 14:14:31;;;;;;;0.00;0.00;;;8.20;99.90;;;;;;4969215;28;20457;-67
2021/12/16 14:25:33;;;;;;;0.00;0.00;;;8.20;99.90;;;;;;4956343;28;20061;-67
2021/12/16 14:50:24;;;;;;;2.33;0.30;;;8.30;99.90;;;;;;4960626;28;20134;-67
2021/12/16 14:52:50;;;;;;;0.00;0.00;;;8.20;99.90;;;;;;4959854;28;20065;-66
2021/12/16 14:55:18;;;;;;;0.00;0.00;;;8.20;99.90;;;;;;4959274;28;20047;-66
2021/12/16 14:57:51;;;;;;;0.00;0.00;;;8.20;99.90;;;;;;4960038;28;20058;-66
2021/12/16 15:00:33;;;;;;;0.00;0.00;;;8.20;99.90;;;;;;4960890;28;20066;-66
2021/12/16 15:03:04;;;;;;;0.00;0.00;;;8.20;99.90;;;;;;4960718;28;20051;-67
2021/12/16 15:05:45;;;;;;;0.20;0.20;;;8.20;99.90;;;;;;4960116;28;20049;-67
2021/12/16 15:08:24;;;;;;;0.00;0.00;;;8.20;99.90;;;;;;4957872;28;20109;-67
2021/12/16 15:10:51;;;;;;;0.00;0.00;;;8.20;99.90;;;;;;4958708;28;20235;-67
2021/12/16 15:13:24;;;;;;;0.00;0.00;;;8.60;99.90;;;;;;4958724;28;20313;-66
2021/12/16 15:16:24;;;;;;;0.00;0.00;;;8.40;99.90;;;;;;4960192;28;20535;-65
2021/12/16 15:40:36;;;;;;;0.00;0.00;;;8.20;99.90;;;;;;4959007;28;20133;-66
2021/12/16 15:43:06;;;;;;;0.00;0.00;;;8.30;99.90;;;;;;4958409;28;20305;-66
2021/12/16 15:45:40;;;;;;;0.00;0.00;;;8.20;99.90;;;;;;4960302;28;20095;-66
2021/12/16 15:48:16;;;;;;;0.00;0.00;;;8.20;99.90;;;;;;4957987;28;20039;-66
2021/12/16 15:51:00;;;;;;;0.00;0.00;;;8.20;99.90;;;;;;4972355;28;20090;-66
2021/12/16 15:53:32;;;;;;;0.00;0.00;;;8.20;99.90;;;;;;4978797;28;20339;-66
2021/12/16 15:56:17;;;;;;;0.00;0.00;;;8.30;99.90;;;;;;4978077;28;20054;-66
2021/12/16 15:58:45;;;;;;;;;;;8.30;99.90;;;;;;4977783;28;20071;-66
2021/12/16 16:01:24;;;;;;;0.00;0.00;;;8.40;99.90;;;;;;4978753;28;20012;-66
2021/12/16 16:03:50;;;;;;;0.00;0.00;;;8.20;99.90;;;;;;4992678;28;20111;-66
2021/12/16 16:06:18;;;;;;;0.00;0.00;;;8.20;99.90;;;;;;4996382;28;20042;-66
2021/12/16 16:08:55;;;;;;;0.00;0.00;;;8.30;99.90;;;;;;4996471;28;20062;-66
2021/12/16 16:11:30;;;;;;;0.00;0.00;;;8.60;99.90;;;;;;4997611;28;20441;-66
2021/12/16 16:14:00;;;;;;;0.00;0.00;;;8.40;99.90;;;;;;4980582;28;20194;-66
2021/12/16 16:16:32;;;;;;;0.00;0.00;;;8.30;99.90;;;;;;4999117;28;20136;-63
2021/12/16 16:19:00;;;;;;;0.00;0.00;;;8.50;99.90;;;;;;4998942;28;20103;-63
2021/12/16 16:21:29;;;;;;;0.00;0.00;;;8.50;99.90;;;;;;4981115;28;20074;-64
2021/12/16 16:24:07;;;;;;;0.00;0.00;;;8.50;99.90;;;;;;4996398;28;20049;-64
2021/12/16 16:26:34;;;;;;;0.00;0.00;;;8.40;99.90;;;;;;4986213;28;20101;-65
2021/12/16 16:29:05;;;;;;;0.00;0.00;;;8.40;99.90;;;;;;4964097;28;20399;-65
2021/12/16 16:31:33;;;;;;;0.00;0.00;;;8.40;99.90;;;;;;4965515;28;20189;-64
2021/12/16 16:33:59;;;;;;;0.00;0.00;;;8.40;99.90;;;;;;4964908;28;20082;-64
2021/12/16 16:36:29;;;;;;;0.00;0.00;;;8.40;99.90;;;;;;4963120;28;20050;-65
2021/12/16 16:38:57;;;;;;;0.00;0.00;;;8.40;99.90;;;;;;4965203;28;20060;-66
2021/12/16 16:41:28;;;;;;;0.00;0.00;;;8.40;99.90;;;;;;4965263;28;20058;-61
2021/12/16 16:44:04;;;;;;;0.00;0.00;;;8.50;99.90;;;;;;4964990;28;20130;-69
2021/12/16 16:47:08;;;;;;;0.00;0.00;;;8.60;99.90;;;;;;4964799;28;20055;-65
2021/12/16 16:50:00;;;;;;;0.00;0.00;;;8.50;99.90;;;;;;4948004;28;20418;-65
2021/12/16 16:52:30;;;;;;;0.00;0.00;;;8.50;99.90;;;;;;4964767;28;20069;-65
2021/12/16 16:55:18;;;;;;;0.00;0.00;;;8.50;99.90;;;;;;4965669;28;20053;-65
2021/12/16 16:57:51;;;;;;;0.00;0.00;;;8.40;99.90;;;;;;4971072;28;20117;-65
2021/12/16 17:00:36;;;;;;;0.00;0.00;;;8.40;99.90;;;;;;4965838;28;20093;-65
2021/12/16 17:03:10;;;;;;;0.00;0.00;;;8.40;99.90;;;;;;4966099;28;20513;-65
2021/12/16 17:05:40;;;;;;;0.45;0.45;;;8.50;99.90;;;;;;4971391;28;20050;-65
2021/12/16 17:08:28;;;;;;;0.00;0.00;;;8.40;99.90;;;;;;4966105;28;20061;-64
2021/12/16 17:10:54;;;;;;;0.00;0.00;;;8.30;99.90;;;;;;4979158;28;20129;-68
2021/12/16 17:13:41;;;;;;;0.00;0.00;;;8.30;99.90;;;;;;4965863;28;20492;-65